createdAt,value
2018-02-22T00:01:38.946Z,65.55
2018-02-22T00:04:07.773Z,57.80
2018-02-22T00:06:36.426Z,64.32
2018-02-22T00:09:05.474Z,64.70
2018-02-22T00:11:34.494Z,70.32
2018-02-22T00:14:03.766Z,58.58
2018-02-22T00:16:37.468Z,66.07
2018-02-22T00:19:06.453Z,61.37
2018-02-22T00:21:35.274Z,73.30
2018-02-22T00:24:04.083Z,61.30
2018-02-22T00:26:33.138Z,65.22
2018-02-22T00:29:02.576Z,61.88
2018-02-22T00:31:31.623Z,62.05
2018-02-22T00:34:01.391Z,63.58
2018-02-22T00:36:31.553Z,65.18
2018-02-22T00:39:00.829Z,61.72
2018-02-22T00:41:29.348Z,56.17
2018-02-22T00:43:58.316Z,57.88
2018-02-22T00:46:27.219Z,60.47
2018-02-22T00:48:56.455Z,61.22
2018-02-22T00:51:25.499Z,55.38
2018-02-22T00:53:54.772Z,65.40
2018-02-22T00:56:24.110Z,62.10
2018-02-22T00:58:58.799Z,66.55
2018-02-22T01:01:27.884Z,56.20
2018-02-22T01:03:57.067Z,56.28
2018-02-22T01:06:26.214Z,55.30
2018-02-22T01:08:55.528Z,56.15
2018-02-22T01:11:24.711Z,57.42
2018-02-22T01:13:53.824Z,58.70
2018-02-22T01:16:22.910Z,56.08
2018-02-22T01:18:51.932Z,63.22
2018-02-22T01:21:20.838Z,58.45
2018-02-22T01:23:49.890Z,55.95
2018-02-22T01:26:18.773Z,55.33
2018-02-22T01:28:47.747Z,56.90
2018-02-22T01:31:16.684Z,50.50
2018-02-22T01:33:45.870Z,56.03
2018-02-22T01:36:14.480Z,52.25
2018-02-22T01:38:43.262Z,55.38
2018-02-22T01:41:12.205Z,56.63
2018-02-22T01:43:41.316Z,51.95
2018-02-22T01:46:10.198Z,58.35
2018-02-22T01:48:39.573Z,57.90
2018-02-22T01:51:08.693Z,57.40
2018-02-22T01:53:37.704Z,57.62
2018-02-22T01:56:06.983Z,55.58
2018-02-22T01:58:36.143Z,53.35
2018-02-22T02:01:05.151Z,52.85
2018-02-22T02:43:14.762Z,54.05
2018-02-22T02:45:43.380Z,39.42
2018-02-22T02:48:12.608Z,49.22
2018-02-22T02:50:41.455Z,58.65
2018-02-22T02:53:09.905Z,55.33
2018-02-22T03:38:17.737Z,50.90
2018-02-22T03:40:46.855Z,42.80
2018-02-22T03:43:15.973Z,54.65
2018-02-22T03:45:46.180Z,54.70
2018-02-22T03:48:15.361Z,39.10
2018-02-22T03:50:44.481Z,40.25
2018-02-22T03:53:13.067Z,49.65
2018-02-22T04:13:41.581Z,45.33
2018-02-22T04:16:10.502Z,32.95
2018-02-22T04:18:40.617Z,37.15
2018-02-22T04:21:09.866Z,48.33
2018-02-22T04:23:38.668Z,39.97
2018-02-22T04:26:14.267Z,44.40
2018-02-22T04:28:43.029Z,36.10
2018-02-22T04:31:11.930Z,46.33
2018-02-22T04:33:40.808Z,42.97
2018-02-22T04:36:09.931Z,47.40
2018-02-22T04:38:38.594Z,45.28
2018-02-22T04:41:08.159Z,45.72
2018-02-22T04:43:36.945Z,35.85
2018-02-22T04:46:05.679Z,41.65
2018-02-22T04:48:34.530Z,42.22
2018-02-22T04:51:04.897Z,44.67
2018-02-22T04:53:33.856Z,42.97
2018-02-22T04:56:02.500Z,55.60
2018-02-22T04:58:30.942Z,43.83
2018-02-22T05:00:59.323Z,45.28
2018-02-22T05:03:27.736Z,41.63
2018-02-22T05:05:56.331Z,49.70
2018-02-22T05:08:25.353Z,45.42
2018-02-22T05:10:53.972Z,35.75
2018-02-22T05:13:22.475Z,47.83
2018-02-22T05:15:50.542Z,50.90
2018-02-22T05:18:18.276Z,54.92
2018-02-22T05:20:46.175Z,55.12
2018-02-22T05:23:14.002Z,48.78
2018-02-22T05:25:42.315Z,46.63
2018-02-22T05:28:10.496Z,45.67
2018-02-22T05:30:38.905Z,44.58
2018-02-22T05:33:06.725Z,42.78
2018-02-22T05:35:34.465Z,45.65
2018-02-22T05:38:02.507Z,53.80
2018-02-22T05:40:30.534Z,47.40
2018-02-22T05:42:58.085Z,45.88
2018-02-22T05:45:25.627Z,46.47
2018-02-22T05:47:53.412Z,50.40
2018-02-22T05:50:20.994Z,51.90
2018-02-22T05:52:48.816Z,51.05
2018-02-22T05:55:16.469Z,47.47
2018-02-22T05:57:44.113Z,51.58
2018-02-22T06:00:11.955Z,49.42
2018-02-22T06:02:39.680Z,57.95
2018-02-22T06:05:07.314Z,41.72
2018-02-22T06:07:34.889Z,41.03
2018-02-22T06:10:02.545Z,42.97
2018-02-22T06:12:30.243Z,59.90
2018-02-22T06:14:57.706Z,49.35
2018-02-22T06:17:25.517Z,47.00
2018-02-22T06:19:53.353Z,46.55
2018-02-22T06:22:20.921Z,50.45
2018-02-22T06:24:48.372Z,46.50
2018-02-22T06:27:15.857Z,44.03
2018-02-22T06:29:43.361Z,52.50
2018-02-22T06:32:11.320Z,49.42
2018-02-22T06:34:38.818Z,47.70
2018-02-22T06:37:06.491Z,42.45
2018-02-22T06:39:34.389Z,49.22
2018-02-22T06:51:00.183Z,60.85
2018-02-22T06:56:30.859Z,47.62
2018-02-22T06:58:59.012Z,52.60
2018-02-22T07:01:26.623Z,48.45
2018-02-22T07:03:54.109Z,48.40
2018-02-22T07:06:21.559Z,44.78
2018-02-22T07:08:49.108Z,50.92
2018-02-22T07:11:16.569Z,49.75
2018-02-22T07:13:44.024Z,45.35
2018-02-22T07:16:11.487Z,44.50
2018-02-22T07:18:38.926Z,46.28
2018-02-22T07:21:06.383Z,47.38
2018-02-22T07:23:33.824Z,57.78
2018-02-22T07:26:01.291Z,45.33
2018-02-22T07:28:28.972Z,49.08
2018-02-22T07:30:56.605Z,50.35
2018-02-22T07:33:24.077Z,52.47
2018-02-22T07:35:51.518Z,58.40
2018-02-22T07:38:18.983Z,56.45
2018-02-22T07:40:46.448Z,48.35
2018-02-22T07:43:13.921Z,45.65
2018-02-22T07:45:41.410Z,52.83
2018-02-22T07:48:08.882Z,52.97
2018-02-22T07:50:36.372Z,53.72
2018-02-22T07:53:03.832Z,50.35
2018-02-22T07:55:31.275Z,56.20
2018-02-22T07:57:58.841Z,49.88
2018-02-22T08:00:26.315Z,46.65
2018-02-22T08:02:53.793Z,45.58
2018-02-22T08:05:21.267Z,54.55
2018-02-22T08:07:48.753Z,49.40
2018-02-22T08:10:16.258Z,47.90
2018-02-22T08:12:43.735Z,47.90
2018-02-22T08:15:11.212Z,52.62
2018-02-22T08:17:38.716Z,45.88
2018-02-22T08:20:06.172Z,50.00
2018-02-22T08:22:33.630Z,53.33
2018-02-22T08:25:01.139Z,47.13
2018-02-22T08:27:28.586Z,50.78
2018-02-22T08:29:56.045Z,47.38
2018-02-22T08:32:23.502Z,50.47
2018-02-22T08:34:51.048Z,53.25
2018-02-22T08:37:18.496Z,54.65
2018-02-22T08:39:46.032Z,50.03
2018-02-22T08:42:13.492Z,48.85
2018-02-22T08:44:40.975Z,45.30
2018-02-22T08:47:08.441Z,42.50
2018-02-22T08:49:36.041Z,42.53
2018-02-22T08:52:03.531Z,46.30
2018-02-22T08:54:31.017Z,48.20
2018-02-22T08:56:58.496Z,41.78
2018-02-22T08:59:26.034Z,45.25
2018-02-22T09:01:53.503Z,43.80
2018-02-22T09:04:23.601Z,40.83
2018-02-22T09:06:51.171Z,41.30
2018-02-22T09:09:18.731Z,41.55
2018-02-22T09:11:46.201Z,42.90
2018-02-22T09:14:13.655Z,44.30
2018-02-22T09:16:41.141Z,44.97
2018-02-22T09:19:08.676Z,39.28
2018-02-22T09:21:36.126Z,38.17
2018-02-22T09:24:03.627Z,41.37
2018-02-22T09:26:31.087Z,43.53
2018-02-22T09:28:58.547Z,41.20
2018-02-22T09:31:26.066Z,40.42
2018-02-22T09:33:53.537Z,39.72
2018-02-22T09:36:22.127Z,42.83
2018-02-22T09:38:49.708Z,40.65
2018-02-22T09:41:17.185Z,46.72
2018-02-22T09:43:44.746Z,45.20
2018-02-22T09:46:12.236Z,42.67
2018-02-22T09:48:39.916Z,35.92
2018-02-22T09:51:07.430Z,39.05
2018-02-22T09:53:35.032Z,40.00
2018-02-22T09:56:02.526Z,40.28
2018-02-22T09:58:30.082Z,38.10
2018-02-22T10:00:57.623Z,38.25
2018-02-22T10:03:25.078Z,41.45
2018-02-22T10:05:52.572Z,39.30
2018-02-22T10:08:20.118Z,37.28
2018-02-22T10:10:47.584Z,39.63
2018-02-22T10:13:15.212Z,34.08
2018-02-22T10:15:42.696Z,47.17
2018-02-22T10:18:10.172Z,40.25
2018-02-22T10:20:37.762Z,40.40
2018-02-22T10:23:05.229Z,38.83
2018-02-22T10:25:32.706Z,41.10
2018-02-22T10:28:00.174Z,44.60
2018-02-22T10:30:28.010Z,44.28
2018-02-22T10:32:56.658Z,39.35
2018-02-22T10:35:24.308Z,35.97
2018-02-22T10:37:51.790Z,43.20
2018-02-22T10:40:19.388Z,42.42
2018-02-22T10:42:46.957Z,39.33
2018-02-22T10:45:14.440Z,42.20
2018-02-22T10:47:41.962Z,39.85
2018-02-22T10:50:09.440Z,38.70
2018-02-22T10:52:37.003Z,39.92
2018-02-22T10:55:04.648Z,38.92
2018-02-22T10:57:32.133Z,42.83
2018-02-22T10:59:59.614Z,43.22
2018-02-22T11:02:32.708Z,39.28
2018-02-22T11:07:53.096Z,39.58
2018-02-22T11:10:20.669Z,36.85
2018-02-22T11:12:48.127Z,37.45
2018-02-22T11:15:15.592Z,34.92
2018-02-22T11:17:43.041Z,38.45
2018-02-22T11:20:10.584Z,36.17
2018-02-22T11:22:38.052Z,37.00
2018-02-22T11:25:05.498Z,39.65
2018-02-22T11:27:33.078Z,33.65
2018-02-22T11:30:00.717Z,39.40
2018-02-22T11:32:28.177Z,41.53
2018-02-22T11:34:55.710Z,38.65
2018-02-22T11:37:23.199Z,39.65
2018-02-22T11:39:50.726Z,34.38
2018-02-22T11:42:18.213Z,37.65
2018-02-22T11:44:45.684Z,37.40
2018-02-22T11:47:15.994Z,35.25
2018-02-22T11:49:43.459Z,35.85
2018-02-22T11:52:10.953Z,34.75
2018-02-22T11:54:38.488Z,31.30
2018-02-22T11:57:05.965Z,30.85
2018-02-22T11:59:34.630Z,34.05
2018-02-22T12:02:02.135Z,34.92
2018-02-22T12:04:29.597Z,27.48
2018-02-22T12:06:57.149Z,30.50
2018-02-22T12:09:25.635Z,32.95
2018-02-22T12:11:53.116Z,32.92
2018-02-22T12:14:20.597Z,30.33
2018-02-22T12:16:48.063Z,29.02
2018-02-22T12:19:15.531Z,29.17
2018-02-22T12:21:43.037Z,33.35
2018-02-22T12:24:10.528Z,32.47
2018-02-22T12:26:38.009Z,32.10
2018-02-22T12:29:05.473Z,31.62
2018-02-22T12:31:32.929Z,32.08
2018-02-22T12:34:00.487Z,28.63
2018-02-22T12:36:28.039Z,29.47
2018-02-22T12:38:55.563Z,31.63
2018-02-22T12:41:23.044Z,31.77
2018-02-22T12:43:50.514Z,27.30
2018-02-22T12:46:17.970Z,30.03
2018-02-22T12:48:45.443Z,31.93
2018-02-22T12:51:12.915Z,34.43
2018-02-22T12:53:40.456Z,26.90
2018-02-22T12:56:07.916Z,31.30
2018-02-22T12:58:35.411Z,29.73
2018-02-22T13:01:02.954Z,21.43
2018-02-22T13:03:30.423Z,28.93
2018-02-22T13:05:57.871Z,28.00
2018-02-22T13:08:25.318Z,30.60
2018-02-22T13:10:52.781Z,27.77
2018-02-22T13:13:20.235Z,30.17
2018-02-22T13:15:47.698Z,24.43
2018-02-22T13:18:15.215Z,26.27
2018-02-22T13:20:42.839Z,20.97
2018-02-22T13:23:10.437Z,31.67
2018-02-22T13:25:37.902Z,26.13
2018-02-22T13:28:05.468Z,27.17
2018-02-22T13:30:32.922Z,31.93
2018-02-22T13:33:12.056Z,29.60
2018-02-22T13:35:39.568Z,27.17
2018-02-22T13:38:18.639Z,25.60
2018-02-22T13:40:46.092Z,23.70
2018-02-22T13:43:13.552Z,25.70
2018-02-22T13:45:41.233Z,28.73
2018-02-22T13:48:08.700Z,26.57
2018-02-22T13:50:47.991Z,32.47
2018-02-22T13:53:15.471Z,24.60
2018-02-22T13:55:42.966Z,23.47
2018-02-22T13:58:10.470Z,28.10
2018-02-22T14:00:49.552Z,23.00
2018-02-22T14:03:17.055Z,24.93
2018-02-22T14:05:44.569Z,27.43
2018-02-22T14:08:23.568Z,23.70
2018-02-22T14:10:51.045Z,27.97
2018-02-22T14:13:18.505Z,27.50
2018-02-22T14:15:46.046Z,26.53
2018-02-22T14:18:13.524Z,25.13
2018-02-22T14:20:41.032Z,28.30
2018-02-22T14:23:08.490Z,22.60
2018-02-22T14:25:35.966Z,26.50
2018-02-22T14:28:03.440Z,30.50
2018-02-22T14:30:30.916Z,24.73
2018-02-22T14:32:58.452Z,34.63
2018-02-22T14:35:25.912Z,26.67
2018-02-22T14:37:53.393Z,21.70
2018-02-22T14:40:20.847Z,27.10
2018-02-22T14:42:48.363Z,52.80
2018-02-22T14:45:15.807Z,28.33
2018-02-22T14:47:43.321Z,28.57
2018-02-22T14:50:10.784Z,27.20
2018-02-22T14:52:38.323Z,27.13
2018-02-22T14:55:05.802Z,34.27
2018-02-22T14:57:33.263Z,24.67
2018-02-22T15:00:00.741Z,24.00
2018-02-22T15:02:28.266Z,22.73
2018-02-22T15:04:55.710Z,25.20
2018-02-22T15:07:23.274Z,28.53
2018-02-22T15:09:50.749Z,23.27
2018-02-22T15:12:18.258Z,28.50
2018-02-22T15:14:45.784Z,24.67
2018-02-22T15:17:13.242Z,24.67
2018-02-22T15:19:40.713Z,30.77
2018-02-22T15:22:08.175Z,32.53
2018-02-22T15:24:35.655Z,36.05
2018-02-22T15:27:03.134Z,29.37
2018-02-22T15:29:30.652Z,26.10
2018-02-22T15:31:58.167Z,40.47
2018-02-22T15:34:25.631Z,34.10
2018-02-22T15:36:53.070Z,26.98
2018-02-22T15:39:20.555Z,27.13
2018-02-22T15:41:48.096Z,28.08
2018-02-22T15:44:15.549Z,28.10
2018-02-22T15:46:43.193Z,26.70
2018-02-22T15:49:10.764Z,36.35
2018-02-22T15:51:38.215Z,22.52
2018-02-22T15:54:05.660Z,25.62
2018-02-22T15:56:33.120Z,23.58
2018-02-22T15:59:00.721Z,29.60
2018-02-22T16:01:28.874Z,26.02
2018-02-22T16:06:35.747Z,23.83
2018-02-22T16:09:03.375Z,22.17
2018-02-22T16:11:31.960Z,27.85
2018-02-22T16:13:59.450Z,24.52
2018-02-22T16:16:29.403Z,23.08
2018-02-22T16:18:56.871Z,27.10
2018-02-22T16:21:27.225Z,23.70
2018-02-22T16:23:54.731Z,27.65
2018-02-22T16:26:26.678Z,26.98
2018-02-22T16:28:54.122Z,23.02
2018-02-22T16:31:21.609Z,25.02
2018-02-22T16:33:49.062Z,24.40
2018-02-22T16:36:17.233Z,30.27
2018-02-22T16:38:44.718Z,24.00
2018-02-22T16:41:12.426Z,24.75
2018-02-22T16:43:39.900Z,27.17
2018-02-22T16:46:07.363Z,24.90
2018-02-22T16:48:34.819Z,29.63
2018-02-22T16:51:02.306Z,32.00
2018-02-22T16:53:29.764Z,30.35
2018-02-22T16:55:57.245Z,25.77
2018-02-22T16:58:24.758Z,23.55
2018-02-22T17:00:52.208Z,24.30
2018-02-22T17:03:19.670Z,30.45
2018-02-22T17:05:47.228Z,28.45
2018-02-22T17:08:14.774Z,24.48
2018-02-22T17:10:43.079Z,27.60
2018-02-22T17:13:10.594Z,27.83
2018-02-22T17:15:38.113Z,28.33
2018-02-22T17:18:05.659Z,29.55
2018-02-22T17:20:33.231Z,37.83
2018-02-22T17:23:00.703Z,23.38
2018-02-22T17:25:27.596Z,31.23
2018-02-22T17:28:00.667Z,24.50
2018-02-22T17:30:33.590Z,35.15
2018-02-22T17:33:01.105Z,32.35
2018-02-22T17:38:41.573Z,26.87
2018-02-22T17:41:11.481Z,21.37
2018-02-22T17:43:38.963Z,27.17
2018-02-22T17:46:06.432Z,25.90
2018-02-22T17:48:34.042Z,27.27
2018-02-22T17:51:01.514Z,31.70
2018-02-22T17:53:29.015Z,33.50
2018-02-22T17:55:56.475Z,30.70
2018-02-22T17:58:23.998Z,31.60
2018-02-22T18:00:51.492Z,29.48
2018-02-22T18:03:18.939Z,28.52
2018-02-22T18:05:46.490Z,27.83
2018-02-22T18:08:13.952Z,24.33
2018-02-22T18:10:41.398Z,28.33
2018-02-22T18:13:08.875Z,51.95
2018-02-22T18:15:36.328Z,25.98
2018-02-22T18:18:03.792Z,29.85
2018-02-22T18:20:31.289Z,37.33
2018-02-22T18:22:58.762Z,23.23
2018-02-22T18:25:26.198Z,23.17
2018-02-22T18:27:53.647Z,30.12
2018-02-22T18:30:21.186Z,30.88
2018-02-22T18:32:48.689Z,29.33
2018-02-22T18:35:16.230Z,27.27
2018-02-22T18:37:49.455Z,37.13
2018-02-22T18:40:22.458Z,29.37
2018-02-22T18:42:49.897Z,26.67
2018-02-22T18:45:17.343Z,24.98
2018-02-22T18:47:44.821Z,27.30
2018-02-22T18:50:12.278Z,25.60
2018-02-22T18:52:39.790Z,26.90
2018-02-22T18:55:07.367Z,27.85
2018-02-22T18:57:34.854Z,29.12
2018-02-22T19:00:02.540Z,26.50
2018-02-22T19:02:30.003Z,30.92
2018-02-22T19:04:57.457Z,25.05
2018-02-22T19:07:24.907Z,28.30
2018-02-22T19:09:52.519Z,29.37
2018-02-22T19:12:19.981Z,27.48
2018-02-22T19:14:47.489Z,28.67
2018-02-22T19:17:14.943Z,36.58
2018-02-22T19:19:42.382Z,31.12
2018-02-22T19:22:13.433Z,22.70
2018-02-22T19:24:41.092Z,28.15
2018-02-22T19:27:08.561Z,19.87
2018-02-22T19:29:36.030Z,20.40
2018-02-22T19:32:03.496Z,26.05
2018-02-22T19:34:30.968Z,23.62
2018-02-22T19:36:58.460Z,20.00
2018-02-22T19:39:25.994Z,24.27
2018-02-22T19:41:53.438Z,21.98
2018-02-22T19:44:21.042Z,22.92
2018-02-22T19:46:48.558Z,24.17
2018-02-22T19:49:15.996Z,23.10
2018-02-22T19:51:43.549Z,18.70
2018-02-22T19:54:10.998Z,23.25
2018-02-22T19:56:38.470Z,20.10
2018-02-22T19:59:05.926Z,20.62
2018-02-22T20:01:33.379Z,17.30
2018-02-22T20:04:00.903Z,19.75
2018-02-22T20:06:28.365Z,18.30
2018-02-22T20:08:55.815Z,22.02
2018-02-22T20:11:23.292Z,22.80
2018-02-22T20:13:50.770Z,19.00
2018-02-22T20:16:18.294Z,18.33
2018-02-22T20:18:45.807Z,21.40
2018-02-22T20:21:13.321Z,19.10
2018-02-22T20:23:40.757Z,18.08
2018-02-22T20:26:08.236Z,18.30
2018-02-22T20:28:35.700Z,17.65
2018-02-22T20:31:03.287Z,15.68
2018-02-22T20:33:32.506Z,21.33
2018-02-22T20:36:00.015Z,18.62
2018-02-22T20:38:27.502Z,15.05
2018-02-22T20:40:55.013Z,23.33
2018-02-22T20:43:22.493Z,20.17
2018-02-22T20:45:49.970Z,18.08
2018-02-22T20:48:17.487Z,18.15
2018-02-22T20:50:44.998Z,24.35
2018-02-22T20:53:17.985Z,23.65
2018-02-22T20:55:45.458Z,16.95
2018-02-22T20:58:12.964Z,21.30
2018-02-22T21:00:40.422Z,20.30
2018-02-22T21:03:08.069Z,18.70
2018-02-22T21:05:35.515Z,19.73
2018-02-22T21:08:02.986Z,23.67
2018-02-22T21:10:30.433Z,17.05
2018-02-22T21:12:58.072Z,20.08
2018-02-22T21:15:25.534Z,17.85
2018-02-22T21:17:53.340Z,18.80
2018-02-22T21:20:20.823Z,18.15
2018-02-22T21:22:48.296Z,18.60
2018-02-22T21:25:15.734Z,17.37
2018-02-22T21:27:43.285Z,15.65
2018-02-22T21:30:10.788Z,18.42
2018-02-22T21:32:38.239Z,17.65
2018-02-22T21:35:05.703Z,20.17
2018-02-22T21:37:33.195Z,16.77
2018-02-22T21:40:00.723Z,16.67
2018-02-22T21:42:28.106Z,22.60
2018-02-22T21:44:55.596Z,20.90
2018-02-22T21:47:23.128Z,21.77
2018-02-22T21:49:50.788Z,17.80
2018-02-22T21:52:21.959Z,17.80
2018-02-22T21:54:49.651Z,18.90
2018-02-22T21:57:17.119Z,15.32
2018-02-22T21:59:44.647Z,21.85
2018-02-22T22:02:12.120Z,20.12
2018-02-22T22:04:39.628Z,16.00
2018-02-22T22:07:07.040Z,17.62
2018-02-22T22:09:34.501Z,16.65
2018-02-22T22:12:01.986Z,14.82
2018-02-22T22:14:29.471Z,18.12
2018-02-22T22:16:57.160Z,16.50
2018-02-22T22:19:24.703Z,18.77
2018-02-22T22:21:52.356Z,16.27
2018-02-22T22:24:19.799Z,14.20
2018-02-22T22:26:48.263Z,15.70
2018-02-22T22:29:15.707Z,23.25
2018-02-22T22:31:43.158Z,17.92
2018-02-22T22:34:10.730Z,17.87
2018-02-22T22:36:38.171Z,16.27
2018-02-22T22:39:05.631Z,16.50
2018-02-22T22:41:33.072Z,17.48
2018-02-22T22:44:00.617Z,15.60
2018-02-22T22:46:28.023Z,13.65
2018-02-22T22:48:55.479Z,20.83
2018-02-22T22:51:22.928Z,14.20
2018-02-22T22:53:50.381Z,12.85
2018-02-22T22:56:17.914Z,15.73
2018-02-22T22:58:45.388Z,14.60
2018-02-22T23:01:12.839Z,15.73
2018-02-22T23:03:40.293Z,16.37
2018-02-22T23:06:07.760Z,18.70
2018-02-22T23:08:35.221Z,14.85
2018-02-22T23:11:02.691Z,17.33
2018-02-22T23:13:30.165Z,13.60
2018-02-22T23:15:57.619Z,11.68
2018-02-22T23:18:25.168Z,18.98
2018-02-22T23:20:52.639Z,12.82
2018-02-22T23:23:20.112Z,18.10
2018-02-22T23:25:47.577Z,16.45
2018-02-22T23:28:15.120Z,22.65
2018-02-22T23:30:42.602Z,11.98
2018-02-22T23:33:10.074Z,12.02
2018-02-22T23:35:37.567Z,14.55
2018-02-22T23:38:06.468Z,16.37
2018-02-22T23:40:34.426Z,15.68
2018-02-22T23:43:01.926Z,15.15
2018-02-22T23:45:29.422Z,16.45
2018-02-22T23:47:56.892Z,13.15
2018-02-22T23:50:24.363Z,18.02
2018-02-22T23:52:51.810Z,26.37
2018-02-22T23:55:19.274Z,12.52
2018-02-22T23:57:46.852Z,16.65
